createdAt,value
2018-08-20T00:01:09.735Z,20.50
2018-08-20T00:03:13.202Z,20.50
2018-08-20T00:05:16.709Z,20.50
2018-08-20T00:07:20.499Z,20.50
2018-08-20T00:09:34.392Z,20.50
2018-08-20T00:11:37.848Z,20.40
2018-08-20T00:13:41.112Z,20.40
2018-08-20T00:15:44.296Z,20.40
2018-08-20T00:17:47.459Z,20.40
2018-08-20T00:19:50.957Z,20.40
2018-08-20T00:21:54.489Z,20.40
2018-08-20T00:23:57.743Z,20.40
2018-08-20T00:26:00.905Z,20.40
2018-08-20T00:28:04.112Z,20.40
2018-08-20T00:30:10.668Z,20.30
2018-08-20T00:32:14.183Z,20.30
2018-08-20T00:34:17.705Z,20.20
2018-08-20T00:36:20.911Z,20.20
2018-08-20T00:38:24.075Z,20.20
2018-08-20T00:40:27.599Z,20.20
2018-08-20T00:42:30.783Z,20.20
2018-08-20T00:44:34.393Z,20.20
2018-08-20T00:46:37.572Z,20.20
2018-08-20T00:48:40.733Z,20.20
2018-08-20T00:50:43.925Z,20.10
2018-08-20T00:52:47.513Z,20.10
2018-08-20T00:54:50.684Z,20.10
2018-08-20T00:56:53.880Z,20.00
2018-08-20T00:58:57.621Z,20.10
2018-08-20T01:01:00.804Z,20.00
2018-08-20T01:03:04.018Z,20.00
2018-08-20T01:05:07.618Z,20.00
2018-08-20T01:07:10.880Z,19.90
2018-08-20T01:09:14.720Z,19.90
2018-08-20T01:11:18.235Z,19.90
2018-08-20T01:13:21.412Z,19.90
2018-08-20T01:15:24.604Z,19.90
2018-08-20T01:17:27.797Z,19.90
2018-08-20T01:19:31.296Z,19.90
2018-08-20T01:21:34.510Z,19.80
2018-08-20T01:23:37.711Z,19.90
2018-08-20T01:25:40.958Z,19.90
2018-08-20T01:27:48.474Z,19.80
2018-08-20T01:29:52.314Z,19.90
2018-08-20T01:31:55.848Z,19.80
2018-08-20T01:33:59.715Z,19.90
2018-08-20T01:36:02.982Z,19.80
2018-08-20T01:38:06.385Z,19.80
2018-08-20T01:40:09.588Z,19.80
2018-08-20T01:42:13.701Z,19.90
2018-08-20T01:44:16.868Z,19.80
2018-08-20T01:46:20.056Z,19.80
2018-08-20T01:48:23.579Z,19.80
2018-08-20T01:50:26.760Z,19.80
2018-08-20T01:52:29.959Z,19.80
2018-08-20T01:54:33.340Z,19.90
2018-08-20T01:56:36.505Z,19.80
2018-08-20T01:58:40.444Z,19.70
2018-08-20T02:00:43.972Z,19.70
2018-08-20T02:02:53.193Z,19.70
2018-08-20T02:04:56.396Z,19.60
2018-08-20T02:06:59.933Z,19.60
2018-08-20T02:09:03.764Z,19.60
2018-08-20T02:11:06.941Z,19.70
2018-08-20T02:13:10.136Z,19.60
2018-08-20T02:15:13.323Z,19.60
2018-08-20T02:17:16.528Z,19.50
2018-08-20T02:19:19.691Z,19.50
2018-08-20T02:21:23.219Z,19.50
2018-08-20T02:23:26.412Z,19.50
2018-08-20T02:25:29.573Z,19.40
2018-08-20T02:27:33.085Z,19.40
2018-08-20T02:29:36.257Z,19.40
2018-08-20T02:31:39.448Z,19.40
2018-08-20T02:33:42.609Z,19.30
2018-08-20T02:35:45.796Z,19.30
2018-08-20T02:37:49.341Z,19.30
2018-08-20T02:39:52.930Z,19.20
2018-08-20T02:41:56.708Z,19.20
2018-08-20T02:44:00.232Z,19.20
2018-08-20T02:46:03.420Z,19.20
2018-08-20T02:48:08.508Z,19.20
2018-08-20T02:50:12.814Z,19.20
2018-08-20T02:52:16.361Z,19.20
2018-08-20T02:54:19.880Z,19.10
2018-08-20T02:56:23.272Z,19.20
2018-08-20T02:58:27.113Z,19.20
2018-08-20T03:00:30.663Z,19.10
2018-08-20T03:02:33.829Z,19.00
2018-08-20T03:04:37.352Z,19.10
2018-08-20T03:06:41.156Z,19.00
2018-08-20T03:08:44.669Z,19.00
2018-08-20T03:10:48.017Z,19.00
2018-08-20T03:12:51.216Z,19.00
2018-08-20T03:14:54.556Z,19.00
2018-08-20T03:16:58.580Z,19.00
2018-08-20T03:19:02.740Z,19.10
2018-08-20T03:21:05.917Z,19.00
2018-08-20T03:23:09.447Z,19.00
2018-08-20T03:25:13.016Z,18.90
2018-08-20T03:27:16.183Z,18.90
2018-08-20T03:29:19.354Z,19.00
2018-08-20T03:31:22.587Z,19.00
2018-08-20T03:33:26.137Z,19.00
2018-08-20T03:35:29.713Z,19.00
2018-08-20T03:37:33.040Z,19.00
2018-08-20T03:39:36.232Z,19.00
2018-08-20T03:41:39.444Z,19.00
2018-08-20T03:43:42.934Z,18.90
2018-08-20T03:45:46.316Z,18.90
2018-08-20T03:47:49.498Z,18.90
2018-08-20T03:49:52.757Z,18.90
2018-08-20T03:51:56.277Z,18.90
2018-08-20T03:53:59.479Z,18.90
2018-08-20T03:56:02.753Z,19.00
2018-08-20T03:58:06.603Z,19.10
2018-08-20T04:00:11.043Z,19.00
2018-08-20T04:02:14.913Z,18.90
2018-08-20T04:04:18.076Z,18.90
2018-08-20T04:06:21.264Z,18.90
2018-08-20T04:08:24.476Z,18.90
2018-08-20T04:10:27.730Z,18.90
2018-08-20T04:12:30.937Z,18.90
2018-08-20T04:14:34.354Z,18.90
2018-08-20T04:16:37.725Z,18.90
2018-08-20T04:18:40.890Z,18.90
2018-08-20T04:20:44.283Z,18.90
2018-08-20T04:22:47.879Z,18.90
2018-08-20T04:24:51.072Z,18.90
2018-08-20T04:26:54.572Z,18.90
2018-08-20T04:28:58.108Z,18.90
2018-08-20T04:31:01.289Z,18.90
2018-08-20T04:33:04.565Z,19.00
2018-08-20T04:35:08.300Z,19.00
2018-08-20T04:37:11.472Z,19.00
2018-08-20T04:39:14.660Z,19.00
2018-08-20T04:41:18.126Z,19.00
2018-08-20T04:43:21.310Z,19.00
2018-08-20T04:45:24.472Z,19.00
2018-08-20T04:47:27.667Z,19.00
2018-08-20T04:49:30.860Z,19.00
2018-08-20T04:51:34.883Z,19.10
2018-08-20T04:53:38.242Z,19.10
2018-08-20T04:55:41.788Z,19.10
2018-08-20T04:57:44.977Z,19.00
2018-08-20T04:59:48.148Z,19.00
2018-08-20T05:01:51.624Z,19.00
2018-08-20T05:03:54.867Z,19.00
2018-08-20T05:05:58.208Z,19.10
2018-08-20T05:08:01.716Z,19.10
2018-08-20T05:10:05.573Z,19.10
2018-08-20T05:12:08.953Z,19.10
2018-08-20T05:14:12.828Z,19.10
2018-08-20T05:16:16.020Z,19.10
2018-08-20T05:18:19.224Z,19.20
2018-08-20T05:20:22.421Z,19.20
2018-08-20T05:22:25.584Z,19.10
2018-08-20T05:24:29.108Z,19.20
2018-08-20T05:26:32.326Z,19.20
2018-08-20T05:28:35.485Z,19.20
2018-08-20T05:30:38.655Z,19.10
2018-08-20T05:32:41.839Z,19.10
2018-08-20T05:34:45.392Z,19.20
2018-08-20T05:36:48.591Z,19.20
2018-08-20T05:38:52.100Z,19.20
2018-08-20T05:40:55.288Z,19.20
2018-08-20T05:42:58.981Z,19.20
2018-08-20T05:45:02.192Z,19.20
2018-08-20T05:47:06.044Z,19.30
2018-08-20T05:49:09.763Z,19.30
2018-08-20T05:51:13.292Z,19.30
2018-08-20T05:53:16.833Z,19.30
2018-08-20T05:55:20.433Z,19.40
2018-08-20T05:57:23.953Z,19.40
2018-08-20T05:59:27.380Z,19.50
2018-08-20T06:01:30.790Z,19.40
2018-08-20T06:03:34.312Z,19.40
2018-08-20T06:05:37.908Z,19.50
2018-08-20T06:07:41.813Z,19.50
2018-08-20T06:09:45.557Z,19.50
2018-08-20T06:11:48.815Z,19.50
2018-08-20T06:13:52.516Z,19.40
2018-08-20T06:15:55.715Z,19.50
2018-08-20T06:17:58.917Z,19.50
2018-08-20T06:20:02.843Z,19.50
2018-08-20T06:22:06.038Z,19.40
2018-08-20T06:24:09.235Z,19.50
2018-08-20T06:26:12.424Z,19.50
2018-08-20T06:28:15.710Z,19.50
2018-08-20T06:30:19.659Z,19.50
2018-08-20T06:32:23.214Z,19.40
2018-08-20T06:34:26.419Z,19.30
2018-08-20T06:36:30.660Z,19.10
2018-08-20T06:38:33.965Z,18.70
2018-08-20T06:40:37.572Z,18.30
2018-08-20T06:42:41.113Z,18.20
2018-08-20T06:44:44.305Z,18.20
2018-08-20T06:46:47.812Z,18.20
2018-08-20T06:48:51.343Z,18.20
2018-08-20T06:50:54.527Z,18.10
2018-08-20T06:52:57.729Z,18.10
2018-08-20T06:55:00.939Z,18.10
2018-08-20T06:57:04.213Z,18.00
2018-08-20T06:59:07.425Z,18.10
2018-08-20T07:01:10.606Z,18.10
2018-08-20T07:03:14.167Z,18.00
2018-08-20T07:05:17.704Z,18.00
2018-08-20T07:07:21.557Z,18.00
2018-08-20T07:09:25.128Z,17.90
2018-08-20T07:11:28.948Z,17.90
2018-08-20T07:13:34.654Z,17.90
2018-08-20T07:15:38.474Z,17.90
2018-08-20T07:17:41.642Z,17.90
2018-08-20T07:19:44.908Z,17.90
2018-08-20T07:21:48.096Z,17.90
2018-08-20T07:23:51.308Z,18.00
2018-08-20T07:25:55.031Z,18.10
2018-08-20T07:27:58.750Z,18.20
2018-08-20T07:30:02.365Z,18.30
2018-08-20T07:32:07.922Z,18.40
2018-08-20T07:34:11.387Z,18.50
2018-08-20T07:36:14.593Z,18.50
2018-08-20T07:38:18.141Z,18.50
2018-08-20T07:40:22.122Z,18.50
2018-08-20T07:42:25.558Z,18.60
2018-08-20T07:44:28.936Z,18.60
2018-08-20T07:46:32.132Z,18.80
2018-08-20T07:48:35.417Z,19.00
2018-08-20T07:50:38.714Z,18.90
2018-08-20T07:52:42.229Z,19.00
2018-08-20T07:54:45.476Z,19.10
2018-08-20T07:56:49.024Z,19.20
2018-08-20T07:58:52.285Z,19.30
2018-08-20T08:00:55.480Z,19.40
2018-08-20T08:02:59.061Z,19.40
2018-08-20T08:05:02.492Z,19.60
2018-08-20T08:07:05.757Z,19.50
2018-08-20T08:09:10.547Z,19.50
2018-08-20T08:11:13.776Z,19.50
2018-08-20T08:13:16.976Z,19.60
2018-08-20T08:15:20.241Z,19.60
2018-08-20T08:17:23.758Z,19.50
2018-08-20T08:19:26.939Z,19.50
2018-08-20T08:21:30.409Z,19.40
2018-08-20T08:23:33.933Z,19.20
2018-08-20T08:25:37.130Z,18.90
2018-08-20T08:27:40.393Z,18.60
2018-08-20T08:29:43.605Z,18.50
2018-08-20T08:31:46.825Z,18.50
2018-08-20T08:33:50.368Z,18.50
2018-08-20T08:35:53.561Z,18.60
2018-08-20T08:37:56.805Z,18.70
2018-08-20T08:40:00.820Z,18.80
2018-08-20T08:42:04.743Z,18.90
2018-08-20T08:44:08.298Z,19.00
2018-08-20T08:46:11.834Z,19.10
2018-08-20T08:48:15.252Z,19.20
2018-08-20T08:50:18.692Z,19.20
2018-08-20T08:52:21.934Z,19.30
2018-08-20T08:54:25.193Z,19.40
2018-08-20T08:56:28.592Z,19.50
2018-08-20T08:58:31.806Z,19.50
2018-08-20T09:00:35.075Z,19.50
2018-08-20T09:02:38.848Z,19.50
2018-08-20T09:04:42.057Z,19.60
2018-08-20T09:06:45.584Z,19.60
2018-08-20T09:08:49.467Z,19.60
2018-08-20T09:10:52.950Z,19.60
2018-08-20T09:12:56.176Z,19.60
2018-08-20T09:14:59.725Z,19.50
2018-08-20T09:17:02.888Z,19.50
2018-08-20T09:19:06.498Z,19.50
2018-08-20T09:21:10.020Z,19.50
2018-08-20T09:23:13.260Z,19.60
2018-08-20T09:25:16.452Z,19.70
2018-08-20T09:27:20.000Z,19.70
2018-08-20T09:29:23.544Z,19.90
2018-08-20T09:31:26.936Z,20.00
2018-08-20T09:33:30.117Z,20.10
2018-08-20T09:35:33.680Z,20.20
2018-08-20T09:37:37.009Z,20.40
2018-08-20T09:39:40.202Z,20.40
2018-08-20T09:41:43.404Z,20.50
2018-08-20T09:43:46.769Z,20.50
2018-08-20T09:45:50.436Z,20.50
2018-08-20T09:47:54.064Z,20.60
2018-08-20T09:49:57.291Z,20.70
2018-08-20T09:52:00.472Z,20.90
2018-08-20T09:54:03.734Z,20.90
2018-08-20T09:56:06.917Z,20.90
2018-08-20T09:58:10.176Z,20.80
2018-08-20T10:00:20.803Z,20.80
2018-08-20T10:02:24.476Z,20.80
2018-08-20T10:04:28.002Z,20.70
2018-08-20T10:06:32.157Z,20.60
2018-08-20T10:08:35.363Z,20.50
2018-08-20T10:10:39.181Z,20.30
2018-08-20T10:12:42.872Z,20.20
2018-08-20T10:14:46.113Z,20.10
2018-08-20T10:16:49.288Z,20.10
2018-08-20T10:18:52.805Z,20.10
2018-08-20T10:20:56.356Z,20.10
2018-08-20T10:23:00.006Z,20.30
2018-08-20T10:25:03.262Z,20.40
2018-08-20T10:27:07.100Z,20.50
2018-08-20T10:29:10.338Z,20.40
2018-08-20T10:31:13.548Z,20.50
2018-08-20T10:33:16.941Z,20.50
2018-08-20T10:35:20.400Z,20.40
2018-08-20T10:37:23.588Z,20.30
2018-08-20T10:39:26.947Z,20.40
2018-08-20T10:41:30.156Z,20.30
2018-08-20T10:43:33.396Z,20.30
2018-08-20T10:45:42.339Z,20.10
2018-08-20T10:47:47.444Z,20.00
2018-08-20T10:49:50.649Z,19.90
2018-08-20T10:51:53.885Z,19.90
2018-08-20T10:53:57.110Z,20.00
2018-08-20T10:56:00.400Z,20.10
2018-08-20T10:58:03.717Z,20.20
2018-08-20T11:00:07.148Z,20.50
2018-08-20T11:02:10.733Z,20.80
2018-08-20T11:04:14.089Z,21.00
2018-08-20T11:06:17.773Z,21.30
2018-08-20T11:08:21.148Z,21.40
2018-08-20T11:10:24.687Z,21.40
2018-08-20T11:12:27.875Z,21.00
2018-08-20T11:14:31.290Z,20.80
2018-08-20T11:16:34.479Z,20.70
2018-08-20T11:18:38.030Z,20.50
2018-08-20T11:20:41.524Z,20.40
2018-08-20T11:22:45.176Z,20.30
2018-08-20T11:24:48.446Z,20.00
2018-08-20T11:26:51.691Z,19.90
2018-08-20T11:28:55.012Z,20.00
2018-08-20T11:30:58.229Z,20.30
2018-08-20T11:33:01.820Z,20.60
2018-08-20T11:35:05.017Z,20.60
2018-08-20T11:37:08.588Z,20.50
2018-08-20T11:39:11.869Z,20.10
2018-08-20T11:41:15.090Z,19.90
2018-08-20T11:43:18.726Z,19.80
2018-08-20T11:45:22.432Z,20.00
2018-08-20T11:47:25.624Z,20.40
2018-08-20T11:49:28.833Z,20.90
2018-08-20T11:51:32.061Z,21.40
2018-08-20T11:53:35.224Z,21.40
2018-08-20T11:55:38.463Z,21.50
2018-08-20T11:57:41.876Z,21.30
2018-08-20T11:59:45.112Z,21.20
2018-08-20T12:01:48.446Z,20.90
2018-08-20T12:03:55.487Z,20.70
2018-08-20T12:05:58.730Z,20.70
2018-08-20T12:08:02.112Z,20.80
2018-08-20T12:10:07.541Z,21.10
2018-08-20T12:12:11.060Z,21.10
2018-08-20T12:14:14.256Z,21.30
2018-08-20T12:16:17.464Z,21.70
2018-08-20T12:18:20.653Z,22.30
2018-08-20T12:20:23.824Z,22.30
2018-08-20T12:22:27.390Z,22.40
2018-08-20T12:24:31.056Z,22.00
2018-08-20T12:26:34.584Z,21.90
2018-08-20T12:28:38.112Z,21.50
2018-08-20T12:30:41.348Z,21.20
2018-08-20T12:32:44.606Z,21.00
2018-08-20T12:34:47.780Z,21.00
2018-08-20T12:36:51.160Z,20.90
2018-08-20T12:38:54.443Z,20.90
2018-08-20T12:40:57.653Z,21.00
2018-08-20T12:43:00.836Z,21.10
2018-08-20T12:45:04.737Z,21.30
2018-08-20T12:47:07.967Z,21.40
2018-08-20T12:49:11.155Z,21.50
2018-08-20T12:51:14.328Z,21.50
2018-08-20T12:53:17.548Z,21.70
2018-08-20T12:55:20.720Z,22.00
2018-08-20T12:57:23.904Z,22.10
2018-08-20T12:59:27.556Z,21.90
2018-08-20T13:01:30.744Z,21.80
2018-08-20T13:03:33.948Z,21.90
2018-08-20T13:05:37.157Z,21.80
2018-08-20T13:07:40.329Z,21.80
2018-08-20T13:09:43.528Z,21.60
2018-08-20T13:11:46.736Z,21.60
2018-08-20T13:13:49.982Z,21.40
2018-08-20T13:15:53.236Z,21.40
2018-08-20T13:17:56.600Z,21.50
2018-08-20T13:20:00.103Z,21.50
2018-08-20T13:22:03.788Z,21.50
2018-08-20T13:24:07.309Z,21.50
2018-08-20T13:26:10.589Z,21.60
2018-08-20T13:28:13.812Z,21.80
2018-08-20T13:30:17.382Z,22.10
2018-08-20T13:32:21.012Z,22.10
2018-08-20T13:34:24.269Z,22.50
2018-08-20T13:36:27.611Z,23.10
2018-08-20T13:38:31.484Z,23.50
2018-08-20T13:40:34.754Z,23.20
2018-08-20T13:42:37.968Z,23.20
2018-08-20T13:44:41.169Z,23.40
2018-08-20T13:46:44.608Z,23.50
2018-08-20T13:48:48.123Z,23.80
2018-08-20T13:50:53.789Z,24.10
2018-08-20T13:52:57.053Z,24.10
2018-08-20T13:55:00.236Z,23.80
2018-08-20T13:57:03.461Z,23.10
2018-08-20T13:59:06.677Z,22.60
2018-08-20T14:01:10.119Z,22.90
2018-08-20T14:03:13.870Z,23.30
2018-08-20T14:05:17.825Z,23.30
2018-08-20T14:07:21.172Z,22.60
2018-08-20T14:09:24.412Z,22.20
2018-08-20T14:11:27.589Z,22.00
2018-08-20T14:13:30.792Z,22.10
2018-08-20T14:15:34.014Z,22.00
2018-08-20T14:17:38.445Z,22.00
2018-08-20T14:19:42.320Z,22.40
2018-08-20T14:21:45.729Z,23.30
2018-08-20T14:23:49.955Z,23.70
2018-08-20T14:25:53.124Z,23.40
2018-08-20T14:27:56.357Z,23.60
2018-08-20T14:29:59.680Z,23.50
2018-08-20T14:32:03.184Z,23.50
2018-08-20T14:34:06.372Z,23.40
2018-08-20T14:36:10.070Z,23.40
2018-08-20T14:38:13.606Z,23.10
2018-08-20T14:40:18.033Z,22.60
2018-08-20T14:42:21.572Z,22.30
2018-08-20T14:44:24.961Z,22.00
2018-08-20T14:46:28.140Z,21.90
2018-08-20T14:48:31.680Z,22.00
2018-08-20T14:50:34.874Z,22.80
2018-08-20T14:52:38.396Z,23.20
2018-08-20T14:54:42.040Z,22.80
2018-08-20T14:56:45.505Z,22.60
2018-08-20T14:58:49.111Z,22.50
2018-08-20T15:00:52.656Z,22.60
2018-08-20T15:02:56.190Z,23.10
2018-08-20T15:04:59.371Z,23.40
2018-08-20T15:07:05.088Z,23.50
2018-08-20T15:09:08.499Z,23.70
2018-08-20T15:11:12.136Z,24.20
2018-08-20T15:13:15.341Z,24.00
2018-08-20T15:15:19.291Z,24.30
2018-08-20T15:17:22.682Z,24.00
2018-08-20T15:19:26.644Z,24.10
2018-08-20T15:21:29.836Z,24.20
2018-08-20T15:23:33.071Z,24.20
2018-08-20T15:25:36.552Z,24.80
2018-08-20T15:27:39.732Z,25.10
2018-08-20T15:29:42.947Z,25.50
2018-08-20T15:31:46.300Z,24.80
2018-08-20T15:33:50.099Z,24.50
2018-08-20T15:35:53.288Z,24.00
2018-08-20T15:37:56.507Z,23.70
2018-08-20T15:39:59.720Z,23.20
2018-08-20T15:42:03.252Z,23.00
2018-08-20T15:44:07.960Z,22.50
2018-08-20T15:46:11.295Z,22.70
2018-08-20T15:48:14.685Z,23.20
2018-08-20T15:50:17.905Z,23.40
2018-08-20T15:52:21.556Z,23.20
2018-08-20T15:54:24.795Z,23.40
2018-08-20T15:56:28.616Z,23.30
2018-08-20T15:58:32.141Z,23.20
2018-08-20T16:00:37.197Z,23.00
2018-08-20T16:02:40.752Z,22.60
2018-08-20T16:04:43.965Z,22.30
2018-08-20T16:06:47.723Z,22.00
2018-08-20T16:08:51.244Z,22.00
2018-08-20T16:10:54.435Z,22.00
2018-08-20T16:12:57.892Z,22.00
2018-08-20T16:15:01.398Z,21.90
2018-08-20T16:17:05.201Z,21.70
2018-08-20T16:19:08.412Z,21.60
2018-08-20T16:21:11.752Z,21.50
2018-08-20T16:23:14.943Z,21.20
2018-08-20T16:25:18.478Z,21.10
2018-08-20T16:27:22.353Z,21.10
2018-08-20T16:29:25.870Z,21.00
2018-08-20T16:31:29.273Z,21.10
2018-08-20T16:33:33.085Z,21.70
2018-08-20T16:35:36.627Z,22.10
2018-08-20T16:37:40.709Z,22.00
2018-08-20T16:39:44.661Z,22.10
2018-08-20T16:41:48.295Z,22.60
2018-08-20T16:43:51.529Z,22.40
2018-08-20T16:45:54.740Z,22.30
2018-08-20T16:47:57.937Z,22.10
2018-08-20T16:50:01.152Z,21.70
2018-08-20T16:52:04.616Z,21.40
2018-08-20T16:54:08.241Z,21.10
2018-08-20T16:56:11.442Z,21.00
2018-08-20T16:58:15.313Z,21.00
2018-08-20T17:00:18.518Z,21.00
2018-08-20T17:02:28.149Z,20.80
2018-08-20T17:04:39.428Z,20.80
2018-08-20T17:06:50.112Z,20.80
2018-08-20T17:08:53.268Z,20.70
2018-08-20T17:10:56.544Z,20.80
2018-08-20T17:12:59.765Z,20.60
2018-08-20T17:15:03.006Z,20.50
2018-08-20T17:17:06.736Z,20.40
2018-08-20T17:19:09.956Z,20.40
2018-08-20T17:21:13.521Z,20.40
2018-08-20T17:23:18.347Z,20.40
2018-08-20T17:25:21.596Z,20.50
2018-08-20T17:27:25.447Z,20.50
2018-08-20T17:29:28.636Z,20.40
2018-08-20T17:31:31.829Z,20.30
2018-08-20T17:33:35.948Z,20.30
2018-08-20T17:35:41.479Z,20.20
2018-08-20T17:37:45.248Z,20.10
2018-08-20T17:40:00.256Z,19.90
2018-08-20T17:42:03.452Z,19.90
2018-08-20T17:44:06.628Z,20.00
2018-08-20T17:46:10.161Z,19.90
2018-08-20T17:48:20.712Z,19.90
2018-08-20T17:50:34.969Z,19.80
2018-08-20T17:52:40.826Z,19.90
2018-08-20T17:54:44.392Z,19.80
2018-08-20T17:56:47.636Z,19.80
2018-08-20T17:58:59.160Z,19.90
2018-08-20T18:01:04.010Z,19.80
2018-08-20T18:03:13.919Z,19.70
2018-08-20T18:05:18.069Z,19.60
2018-08-20T18:07:21.585Z,19.60
2018-08-20T18:09:25.172Z,19.50
2018-08-20T18:11:28.449Z,19.40
2018-08-20T18:13:43.313Z,19.40
2018-08-20T18:15:46.616Z,19.40
2018-08-20T18:17:50.182Z,19.40
2018-08-20T18:19:53.720Z,19.40
2018-08-20T18:21:57.251Z,19.30
2018-08-20T18:24:00.440Z,19.30
2018-08-20T18:26:03.894Z,19.30
2018-08-20T18:28:07.680Z,19.30
2018-08-20T18:30:11.909Z,19.30
2018-08-20T18:32:15.585Z,19.20
2018-08-20T18:34:19.015Z,19.20
2018-08-20T18:36:24.704Z,19.10
2018-08-20T18:38:27.907Z,19.10
2018-08-20T18:40:31.464Z,19.20
2018-08-20T18:42:39.957Z,19.10
2018-08-20T18:44:43.296Z,19.10
2018-08-20T18:46:47.380Z,19.10
2018-08-20T18:48:50.590Z,19.10
2018-08-20T18:50:54.140Z,19.00
2018-08-20T18:52:58.010Z,18.90
2018-08-20T18:55:01.254Z,19.00
2018-08-20T18:57:05.691Z,18.80
2018-08-20T18:59:08.897Z,18.80
2018-08-20T19:01:12.376Z,18.70
2018-08-20T19:03:15.912Z,18.70
2018-08-20T19:05:19.640Z,18.70
2018-08-20T19:07:22.840Z,18.60
2018-08-20T19:09:26.107Z,18.50
2018-08-20T19:11:29.310Z,18.60
2018-08-20T19:13:32.831Z,18.50
2018-08-20T19:15:42.268Z,18.50
2018-08-20T19:17:45.788Z,18.40
2018-08-20T19:19:49.850Z,18.30
2018-08-20T19:21:53.385Z,18.30
2018-08-20T19:23:58.397Z,18.20
2018-08-20T19:26:01.912Z,18.20
2018-08-20T19:28:24.911Z,18.20
2018-08-20T19:30:28.155Z,18.10
2018-08-20T19:32:31.410Z,18.20
2018-08-20T19:34:34.592Z,18.10
2018-08-20T19:36:37.781Z,18.20
2018-08-20T19:38:41.156Z,18.10
2018-08-20T19:40:44.707Z,18.00
2018-08-20T19:42:50.966Z,17.90
2018-08-20T19:44:54.132Z,17.90
2018-08-20T19:46:57.448Z,17.90
2018-08-20T19:49:06.130Z,17.80
2018-08-20T19:51:10.839Z,17.80
2018-08-20T19:53:20.007Z,17.80
2018-08-20T19:55:23.223Z,17.70
2018-08-20T19:57:26.418Z,17.70
2018-08-20T19:59:35.527Z,17.70
2018-08-20T20:01:38.724Z,17.60
2018-08-20T20:03:43.908Z,17.60
2018-08-20T20:05:47.438Z,17.50
2018-08-20T20:07:56.174Z,17.50
2018-08-20T20:09:59.892Z,17.50
2018-08-20T20:12:03.156Z,17.50
2018-08-20T20:14:06.356Z,17.40
2018-08-20T20:16:10.596Z,17.40
2018-08-20T20:18:13.780Z,17.40
2018-08-20T20:20:17.292Z,17.40
2018-08-20T20:22:20.809Z,17.40
2018-08-20T20:24:24.349Z,17.30
2018-08-20T20:26:28.264Z,17.30
2018-08-20T20:28:32.281Z,17.20
2018-08-20T20:30:35.596Z,17.20
2018-08-20T20:32:38.902Z,17.10
2018-08-20T20:34:42.451Z,17.10
2018-08-20T20:36:45.677Z,17.10
2018-08-20T20:38:48.897Z,17.10
2018-08-20T20:40:52.250Z,17.00
2018-08-20T20:42:55.720Z,17.10
2018-08-20T20:44:58.903Z,17.10
2018-08-20T20:47:02.143Z,17.10
2018-08-20T20:49:05.502Z,17.00
2018-08-20T20:51:08.696Z,16.90
2018-08-20T20:53:11.892Z,16.90
2018-08-20T20:55:15.632Z,16.90
2018-08-20T20:57:18.876Z,16.90
2018-08-20T20:59:22.747Z,16.80
2018-08-20T21:01:25.959Z,16.90
2018-08-20T21:03:29.752Z,16.80
2018-08-20T21:05:32.956Z,16.80
2018-08-20T21:07:36.504Z,16.70
2018-08-20T21:09:45.497Z,16.80
2018-08-20T21:11:48.799Z,16.80
2018-08-20T21:13:52.059Z,16.80
2018-08-20T21:16:00.693Z,16.60
2018-08-20T21:18:03.936Z,16.60
2018-08-20T21:20:07.815Z,16.60
2018-08-20T21:22:11.008Z,16.60
2018-08-20T21:24:14.434Z,16.60
2018-08-20T21:26:18.013Z,16.60
2018-08-20T21:28:23.117Z,16.60
2018-08-20T21:30:30.552Z,16.50
2018-08-20T21:32:34.179Z,16.50
2018-08-20T21:34:40.801Z,16.40
2018-08-20T21:36:43.989Z,16.50
2018-08-20T21:38:47.459Z,16.40
2018-08-20T21:40:50.714Z,16.50
2018-08-20T21:42:53.979Z,16.50
2018-08-20T21:44:58.097Z,16.40
2018-08-20T21:47:15.336Z,16.40
2018-08-20T21:49:18.592Z,16.30
2018-08-20T21:51:34.316Z,16.30
2018-08-20T21:53:38.024Z,16.40
2018-08-20T21:55:41.724Z,16.30
2018-08-20T21:57:53.076Z,16.30
2018-08-20T22:00:08.169Z,16.30
2018-08-20T22:02:12.284Z,16.10
2018-08-20T22:04:18.984Z,16.10
2018-08-20T22:06:22.841Z,16.00
2018-08-20T22:08:26.245Z,16.10
2018-08-20T22:10:30.016Z,16.10
2018-08-20T22:12:33.398Z,16.00
2018-08-20T22:14:36.865Z,16.00
2018-08-20T22:16:40.058Z,16.00
2018-08-20T22:18:44.986Z,16.00
2018-08-20T22:20:48.210Z,16.00
2018-08-20T22:22:51.397Z,16.20
2018-08-20T22:25:02.041Z,16.00
2018-08-20T22:27:06.020Z,15.90
2018-08-20T22:29:09.531Z,15.80
2018-08-20T22:31:12.721Z,15.80
2018-08-20T22:33:15.912Z,15.70
2018-08-20T22:35:26.655Z,15.80
2018-08-20T22:37:30.204Z,15.70
2018-08-20T22:39:34.124Z,15.70
2018-08-20T22:41:38.013Z,15.70
2018-08-20T22:43:41.180Z,15.70
2018-08-20T22:45:44.388Z,15.70
2018-08-20T22:47:48.796Z,15.70
2018-08-20T22:49:51.975Z,15.60
2018-08-20T22:51:55.164Z,15.50
2018-08-20T22:53:59.904Z,15.50
2018-08-20T22:56:13.148Z,15.60
2018-08-20T22:58:16.328Z,15.60
2018-08-20T23:00:24.926Z,15.60
2018-08-20T23:02:28.131Z,15.60
2018-08-20T23:04:31.411Z,15.60
2018-08-20T23:06:35.170Z,15.50
2018-08-20T23:08:38.396Z,15.50
2018-08-20T23:10:43.200Z,15.40
2018-08-20T23:12:46.418Z,15.50
2018-08-20T23:14:50.159Z,15.50
2018-08-20T23:16:53.845Z,15.50
2018-08-20T23:18:57.387Z,15.50
2018-08-20T23:21:00.564Z,15.60
2018-08-20T23:23:03.765Z,15.50
2018-08-20T23:25:06.976Z,15.50
2018-08-20T23:27:10.524Z,15.40
2018-08-20T23:29:13.742Z,15.40
2018-08-20T23:31:16.940Z,15.40
2018-08-20T23:33:20.184Z,15.40
2018-08-20T23:35:23.364Z,15.40
2018-08-20T23:37:26.580Z,15.30
2018-08-20T23:39:29.768Z,15.30
2018-08-20T23:41:33.282Z,15.30
2018-08-20T23:43:36.928Z,15.20
2018-08-20T23:45:40.480Z,15.30
2018-08-20T23:47:43.680Z,15.30
2018-08-20T23:49:46.919Z,15.10
2018-08-20T23:51:50.493Z,15.20
2018-08-20T23:53:53.692Z,15.20
2018-08-20T23:55:57.305Z,15.20
2018-08-20T23:58:00.860Z,15.30
